Time;durP1;ratioP1;P1;durP2;ratioP2;P2;SDS_P1;SDS_P2;PMS_P1;PMS_P2;Temp;Humidity;BMP_temperature;BMP_pressure;BME280_temperature;BME280_humidity;BME280_pressure;Samples;Min_cycle;Max_cycle;Signal;HPM_P1;HPM_P2
2021/09/04 00:00:41;;;;;;;8.38;7.57;;;22.10;64.00;;;;;;5112386;28;20256;-63
2021/09/04 00:03:07;;;;;;;8.35;7.55;;;22.10;64.10;;;;;;5111733;28;20177;-63
2021/09/04 00:05:32;;;;;;;8.18;7.38;;;22.10;64.00;;;;;;5112002;28;20577;-63
2021/09/04 00:07:58;;;;;;;8.30;7.32;;;22.10;64.00;;;;;;5112394;28;20197;-63
2021/09/04 00:10:23;;;;;;;8.55;7.65;;;22.00;64.00;;;;;;5111309;28;20317;-63
2021/09/04 00:12:49;;;;;;;9.00;8.10;;;22.00;64.00;;;;;;5112309;28;20230;-63
2021/09/04 00:15:14;;;;;;;9.15;8.13;;;22.00;64.00;;;;;;5112328;28;20173;-62
2021/09/04 00:17:40;;;;;;;8.50;7.63;;;22.00;64.00;;;;;;5111222;28;20173;-63
2021/09/04 00:20:07;;;;;;;7.90;7.13;;;22.00;64.00;;;;;;5112030;28;20319;-63
2021/09/04 00:22:32;;;;;;;8.00;7.20;;;22.00;63.90;;;;;;5111961;28;20180;-63
2021/09/04 00:24:58;;;;;;;8.75;7.85;;;22.00;63.90;;;;;;5111524;28;20181;-63
2021/09/04 00:27:23;;;;;;;9.55;7.57;;;22.00;63.90;;;;;;5111694;28;20542;-63
2021/09/04 00:29:49;;;;;;;8.52;7.65;;;22.00;63.90;;;;;;5112370;28;20166;-63
2021/09/04 00:32:14;;;;;;;8.50;7.70;;;22.00;63.90;;;;;;5111468;28;20212;-63
2021/09/04 00:34:40;;;;;;;9.60;8.20;;;22.00;63.90;;;;;;5111891;28;20178;-63
2021/09/04 00:37:05;;;;;;;9.57;8.60;;;22.00;63.90;;;;;;5115446;28;20658;-64
2021/09/04 00:39:31;;;;;;;9.40;8.50;;;22.00;63.90;;;;;;5114713;28;20579;-64
2021/09/04 00:41:56;;;;;;;9.88;8.80;;;22.00;63.90;;;;;;5115948;28;20568;-64
2021/09/04 00:44:22;;;;;;;8.48;7.65;;;22.00;63.90;;;;;;5115624;28;20173;-63
2021/09/04 00:46:47;;;;;;;9.55;8.27;;;22.00;63.90;;;;;;5113806;28;20235;-64
2021/09/04 00:49:13;;;;;;;9.30;8.30;;;21.90;63.80;;;;;;5115672;28;20173;-64
2021/09/04 00:51:39;;;;;;;9.05;7.82;;;22.00;63.90;;;;;;5114562;28;20687;-63
2021/09/04 00:54:04;;;;;;;8.70;7.90;;;22.00;63.80;;;;;;5115538;28;20181;-63
2021/09/04 00:56:30;;;;;;;8.25;7.45;;;21.90;63.80;;;;;;5115144;28;20191;-63
2021/09/04 00:58:55;;;;;;;9.75;8.05;;;22.00;63.80;;;;;;5113815;28;20168;-63
2021/09/04 01:01:21;;;;;;;9.25;8.30;;;22.00;63.80;;;;;;5115297;28;20223;-63
2021/09/04 01:03:46;;;;;;;9.20;8.13;;;21.90;63.70;;;;;;5115326;28;20239;-64
2021/09/04 01:06:12;;;;;;;10.65;8.00;;;21.90;63.70;;;;;;5114619;28;20193;-63
2021/09/04 01:08:37;;;;;;;9.43;8.20;;;21.90;63.70;;;;;;5113527;28;20631;-63
2021/09/04 01:11:03;;;;;;;9.15;8.25;;;21.90;63.80;;;;;;5113869;28;20176;-63
2021/09/04 01:13:28;;;;;;;8.70;7.80;;;21.90;63.80;;;;;;5114251;28;20179;-63
2021/09/04 01:15:54;;;;;;;8.90;8.02;;;21.90;63.70;;;;;;5115310;28;20169;-63
2021/09/04 01:18:19;;;;;;;9.05;7.90;;;21.90;63.70;;;;;;5114914;28;20180;-63
2021/09/04 01:20:45;;;;;;;8.43;7.57;;;21.90;64.60;;;;;;5112701;28;20583;-62
2021/09/04 01:23:10;;;;;;;8.70;7.88;;;21.90;63.60;;;;;;5114967;28;20196;-62
2021/09/04 01:25:36;;;;;;;8.70;7.90;;;21.90;63.60;;;;;;5114483;28;20169;-63
2021/09/04 01:28:02;;;;;;;9.27;7.95;;;21.90;63.60;;;;;;5096033;28;20226;-63
2021/09/04 01:30:28;;;;;;;8.82;7.90;;;21.90;63.60;;;;;;5114820;28;20169;-62
2021/09/04 01:32:54;;;;;;;8.43;7.63;;;21.90;63.60;;;;;;5115083;28;20184;-63
2021/09/04 01:35:23;;;;;;;8.23;7.50;;;21.80;63.60;;;;;;5113836;28;20681;-63
2021/09/04 01:37:50;;;;;;;8.38;7.40;;;21.80;63.70;;;;;;5114692;28;20541;-63
2021/09/04 01:40:15;;;;;;;8.85;7.32;;;21.80;63.60;;;;;;5114852;28;20185;-63
2021/09/04 01:42:43;;;;;;;8.77;7.85;;;21.70;63.50;;;;;;5113831;28;20605;-63
2021/09/04 01:45:09;;;;;;;8.88;7.97;;;21.80;63.60;;;;;;5114734;28;20207;-63
2021/09/04 01:47:34;;;;;;;9.38;8.05;;;21.80;63.60;;;;;;5113862;28;20679;-63
2021/09/04 01:50:00;;;;;;;9.20;7.55;;;21.80;63.60;;;;;;5113780;28;20169;-63
2021/09/04 01:52:25;;;;;;;9.77;8.07;;;21.80;63.50;;;;;;5112764;28;20177;-63
2021/09/04 01:54:51;;;;;;;9.40;8.18;;;21.80;63.50;;;;;;5113905;28;20238;-62
2021/09/04 01:57:17;;;;;;;9.35;7.63;;;21.80;63.50;;;;;;5114601;28;20647;-63
2021/09/04 01:59:43;;;;;;;12.32;8.80;;;21.80;63.50;;;;;;5114178;28;20211;-62
2021/09/04 02:02:08;;;;;;;8.40;7.60;;;21.80;63.60;;;;;;5113637;28;20192;-62
2021/09/04 02:04:34;;;;;;;8.65;7.65;;;21.80;63.60;;;;;;5113936;28;20177;-62
2021/09/04 02:07:00;;;;;;;9.18;8.20;;;21.80;63.50;;;;;;5113972;28;20213;-62
2021/09/04 02:09:26;;;;;;;9.48;8.07;;;21.80;63.50;;;;;;5113051;28;20700;-62
2021/09/04 02:11:51;;;;;;;8.95;7.90;;;21.80;63.50;;;;;;5114223;28;20271;-63
2021/09/04 02:14:17;;;;;;;8.38;7.53;;;21.80;63.50;;;;;;5114030;28;20169;-62
2021/09/04 02:16:42;;;;;;;9.35;8.45;;;21.70;63.50;;;;;;5112896;28;20169;-62
2021/09/04 02:19:08;;;;;;;8.30;7.47;;;21.70;63.40;;;;;;5113906;28;20650;-63
2021/09/04 02:21:33;;;;;;;8.32;7.53;;;21.70;63.40;;;;;;5113329;28;20225;-62
2021/09/04 02:23:59;;;;;;;8.95;8.07;;;21.70;63.40;;;;;;5113294;28;20169;-63
2021/09/04 02:26:24;;;;;;;9.45;7.72;;;21.70;63.50;;;;;;5113513;28;20212;-62
2021/09/04 02:28:50;;;;;;;8.45;7.65;;;21.70;63.40;;;;;;5113937;28;20173;-62
2021/09/04 02:31:19;;;;;;;8.90;7.90;;;21.70;63.40;;;;;;5112974;28;20670;-62
2021/09/04 02:33:44;;;;;;;9.07;8.05;;;21.70;63.40;;;;;;5113420;28;20691;-62
2021/09/04 02:36:10;;;;;;;8.40;7.57;;;21.70;63.40;;;;;;5113398;28;20223;-63
2021/09/04 02:38:35;;;;;;;8.93;8.02;;;21.70;63.40;;;;;;5112632;28;20176;-61
2021/09/04 02:41:01;;;;;;;8.82;8.02;;;21.70;63.50;;;;;;5113615;28;20196;-62
2021/09/04 02:43:26;;;;;;;8.63;7.72;;;21.70;63.40;;;;;;5113194;28;20268;-62
2021/09/04 02:45:52;;;;;;;8.52;7.43;;;21.70;63.40;;;;;;5112531;28;20555;-63
2021/09/04 02:48:17;;;;;;;9.43;8.43;;;21.70;63.40;;;;;;5113243;28;20177;-63
2021/09/04 02:50:43;;;;;;;8.65;7.75;;;21.70;63.40;;;;;;5112954;28;20176;-62
2021/09/04 02:53:08;;;;;;;9.27;7.82;;;21.70;63.40;;;;;;5112521;28;20200;-62
2021/09/04 02:55:34;;;;;;;9.93;7.97;;;21.70;63.40;;;;;;5112939;28;20611;-62
2021/09/04 02:58:00;;;;;;;8.63;7.72;;;21.70;63.40;;;;;;5112755;28;20211;-62
2021/09/04 03:00:25;;;;;;;9.60;8.00;;;21.70;63.40;;;;;;5112257;28;20192;-62
2021/09/04 03:02:51;;;;;;;9.68;8.68;;;21.60;63.40;;;;;;5113057;28;20514;-62
2021/09/04 03:05:18;;;;;;;9.75;7.82;;;21.70;63.40;;;;;;5112354;28;20170;-63
2021/09/04 03:07:43;;;;;;;9.43;7.90;;;21.70;63.40;;;;;;5112521;28;20213;-62
2021/09/04 03:10:09;;;;;;;8.88;7.97;;;21.70;63.40;;;;;;5113151;28;20196;-62
2021/09/04 03:12:35;;;;;;;8.57;7.78;;;21.70;63.50;;;;;;5112007;28;20203;-61
2021/09/04 03:15:00;;;;;;;8.80;7.90;;;21.60;63.50;;;;;;5112999;28;20173;-61
2021/09/04 03:17:26;;;;;;;9.02;8.13;;;21.60;63.40;;;;;;5112503;28;20173;-61
2021/09/04 03:19:51;;;;;;;9.00;8.10;;;21.60;63.40;;;;;;5111872;28;20579;-62
2021/09/04 03:22:17;;;;;;;8.82;7.93;;;21.60;63.40;;;;;;5112801;28;20226;-61
2021/09/04 03:24:43;;;;;;;9.63;8.63;;;21.60;63.40;;;;;;5112636;28;20631;-62
2021/09/04 03:27:08;;;;;;;9.63;7.90;;;21.60;63.30;;;;;;5111958;28;20217;-61
2021/09/04 03:29:34;;;;;;;9.00;8.10;;;21.60;63.40;;;;;;5112323;28;20697;-62
2021/09/04 03:31:59;;;;;;;9.07;7.60;;;21.60;63.40;;;;;;5112655;28;20184;-62
2021/09/04 03:34:25;;;;;;;11.15;8.57;;;21.60;63.40;;;;;;5111732;28;20173;-62
2021/09/04 03:36:50;;;;;;;10.23;8.77;;;21.60;63.40;;;;;;5112629;28;20207;-63
2021/09/04 03:39:16;;;;;;;8.95;8.05;;;21.60;63.40;;;;;;5112658;28;20204;-62
2021/09/04 03:41:41;;;;;;;10.30;8.52;;;21.60;63.40;;;;;;5111959;28;20179;-62
2021/09/04 03:44:07;;;;;;;8.80;7.90;;;21.60;63.40;;;;;;5112629;28;20177;-62
2021/09/04 03:46:32;;;;;;;8.80;7.90;;;21.60;63.50;;;;;;5112200;28;20250;-61
2021/09/04 03:48:59;;;;;;;9.30;8.40;;;21.60;63.50;;;;;;5111897;28;20177;-62
2021/09/04 03:51:26;;;;;;;9.45;7.75;;;21.60;63.50;;;;;;5112260;28;20654;-62
2021/09/04 03:53:51;;;;;;;8.93;8.02;;;21.60;63.50;;;;;;5112503;28;20184;-62
2021/09/04 03:56:17;;;;;;;8.73;7.90;;;21.60;63.40;;;;;;5111830;28;20169;-62
2021/09/04 03:58:42;;;;;;;11.25;7.88;;;21.60;63.50;;;;;;5112150;28;20188;-62
2021/09/04 04:01:08;;;;;;;8.68;7.82;;;21.60;63.40;;;;;;5112664;28;20612;-62
2021/09/04 04:03:33;;;;;;;9.05;8.13;;;21.60;63.50;;;;;;5111528;28;20216;-62
2021/09/04 04:05:59;;;;;;;8.88;8.05;;;21.60;63.50;;;;;;5112291;28;20196;-62
2021/09/04 04:08:24;;;;;;;8.55;7.72;;;21.50;63.40;;;;;;5111697;28;20177;-62
2021/09/04 04:10:50;;;;;;;8.88;7.93;;;21.60;63.50;;;;;;5113808;28;20176;-62
2021/09/04 04:13:15;;;;;;;8.85;7.95;;;21.60;63.50;;;;;;5116479;28;20177;-62
2021/09/04 04:15:41;;;;;;;8.75;7.93;;;21.60;63.50;;;;;;5115440;28;20172;-61
2021/09/04 04:18:06;;;;;;;8.63;7.82;;;21.50;63.50;;;;;;5116272;28;20184;-62
2021/09/04 04:20:32;;;;;;;8.38;7.35;;;21.50;63.40;;;;;;5115666;28;20213;-61
2021/09/04 04:22:57;;;;;;;8.25;7.45;;;21.50;63.40;;;;;;5115656;28;20613;-62
2021/09/04 04:25:23;;;;;;;9.13;8.02;;;21.50;63.50;;;;;;5115926;28;20161;-61
2021/09/04 04:27:48;;;;;;;8.60;7.70;;;21.50;63.50;;;;;;5116149;28;20240;-62
2021/09/04 04:30:14;;;;;;;8.75;7.80;;;21.50;63.40;;;;;;5115457;28;20226;-62
2021/09/04 04:32:39;;;;;;;8.95;8.05;;;21.50;63.50;;;;;;5115803;28;20185;-62
2021/09/04 04:35:05;;;;;;;8.60;7.78;;;21.50;63.50;;;;;;5115961;28;20165;-62
2021/09/04 04:37:30;;;;;;;8.32;7.55;;;21.50;63.50;;;;;;5115028;28;20176;-63
2021/09/04 04:39:56;;;;;;;8.60;7.70;;;21.50;63.50;;;;;;5115916;28;20619;-62
2021/09/04 04:42:21;;;;;;;8.68;7.78;;;21.50;63.50;;;;;;5115355;28;20173;-62
2021/09/04 04:44:47;;;;;;;8.13;7.28;;;21.50;63.50;;;;;;5114990;28;20497;-62
2021/09/04 04:47:12;;;;;;;8.88;7.95;;;21.50;63.50;;;;;;5115501;28;20205;-62
2021/09/04 04:49:38;;;;;;;8.90;8.00;;;21.50;63.50;;;;;;5115238;28;20176;-62
2021/09/04 04:52:04;;;;;;;10.07;7.85;;;21.50;63.50;;;;;;5115035;28;20589;-62
2021/09/04 04:54:29;;;;;;;8.75;7.68;;;21.50;63.50;;;;;;5115249;28;20169;-62
2021/09/04 04:56:55;;;;;;;9.23;8.32;;;21.50;63.60;;;;;;5115593;28;20177;-62
2021/09/04 04:59:20;;;;;;;9.05;8.15;;;21.50;63.50;;;;;;5114564;28;20230;-63
2021/09/04 05:01:46;;;;;;;10.55;8.43;;;21.50;63.50;;;;;;5115472;28;20647;-63
2021/09/04 05:04:11;;;;;;;8.88;7.50;;;21.50;64.30;;;;;;5115294;28;20517;-62
2021/09/04 05:06:37;;;;;;;8.30;7.50;;;21.50;63.50;;;;;;5114123;28;20217;-62
2021/09/04 05:09:02;;;;;;;9.90;8.45;;;21.40;63.50;;;;;;5115315;28;20169;-62
2021/09/04 05:11:28;;;;;;;8.10;7.30;;;21.50;63.50;;;;;;5114841;28;20659;-62
2021/09/04 05:13:53;;;;;;;9.80;8.80;;;21.40;63.50;;;;;;5114452;28;20161;-62
2021/09/04 05:16:19;;;;;;;7.95;7.15;;;21.40;63.50;;;;;;5115213;28;20180;-62
2021/09/04 05:18:44;;;;;;;7.95;7.15;;;21.40;63.50;;;;;;5114282;28;20169;-62
2021/09/04 05:21:09;;;;;;;8.45;7.57;;;21.40;63.50;;;;;;5113988;28;20243;-61
2021/09/04 05:23:35;;;;;;;8.77;7.97;;;21.40;63.50;;;;;;5114632;28;20190;-62
2021/09/04 05:26:01;;;;;;;7.68;6.97;;;21.40;63.50;;;;;;5114147;28;20594;-62
2021/09/04 05:28:26;;;;;;;8.93;7.65;;;21.40;63.50;;;;;;5114661;28;20169;-62
2021/09/04 05:30:52;;;;;;;8.18;7.38;;;21.40;63.50;;;;;;5114884;28;20612;-62
2021/09/04 05:33:17;;;;;;;9.10;8.15;;;21.40;63.50;;;;;;5113962;28;20181;-62
2021/09/04 05:35:44;;;;;;;8.55;7.55;;;21.40;63.50;;;;;;5114351;28;20279;-63
2021/09/04 05:38:09;;;;;;;7.85;7.15;;;21.40;63.50;;;;;;5114755;28;20212;-62
2021/09/04 05:40:35;;;;;;;8.73;7.82;;;21.40;63.50;;;;;;5113810;28;20196;-62
2021/09/04 05:43:00;;;;;;;8.23;7.43;;;21.40;63.50;;;;;;5114706;28;20619;-63
2021/09/04 05:45:26;;;;;;;8.82;7.93;;;21.40;63.60;;;;;;5114209;28;20181;-63
2021/09/04 05:47:51;;;;;;;8.65;7.80;;;21.40;63.50;;;;;;5113656;28;20236;-63
2021/09/04 05:50:17;;;;;;;8.50;7.60;;;21.40;63.50;;;;;;5114379;28;20189;-63
2021/09/04 05:52:42;;;;;;;9.05;7.90;;;21.40;63.50;;;;;;5112706;28;20177;-62
2021/09/04 05:55:08;;;;;;;7.88;7.18;;;21.40;63.50;;;;;;5113762;28;20173;-63
2021/09/04 05:57:33;;;;;;;8.13;7.30;;;21.40;63.60;;;;;;5114032;28;20173;-63
2021/09/04 05:59:59;;;;;;;9.13;7.75;;;21.40;63.50;;;;;;5114291;28;20174;-63
2021/09/04 06:02:24;;;;;;;8.38;7.55;;;21.40;63.50;;;;;;5113219;28;20200;-62
2021/09/04 06:04:50;;;;;;;7.70;6.90;;;21.40;63.50;;;;;;5114121;28;20173;-63
2021/09/04 06:07:15;;;;;;;9.85;8.23;;;21.40;63.50;;;;;;5114086;28;20253;-63
2021/09/04 06:09:41;;;;;;;8.45;7.25;;;21.40;64.40;;;;;;5113208;28;20165;-63
2021/09/04 06:12:06;;;;;;;8.35;7.53;;;21.40;63.60;;;;;;5113935;28;20176;-63
2021/09/04 06:14:32;;;;;;;8.82;8.02;;;21.40;63.50;;;;;;5113598;28;20651;-62
2021/09/04 06:16:57;;;;;;;8.02;7.22;;;21.40;63.50;;;;;;5113168;28;20173;-63
2021/09/04 06:19:23;;;;;;;7.93;7.10;;;21.40;63.50;;;;;;5113561;28;20169;-62
2021/09/04 06:21:48;;;;;;;7.95;7.15;;;21.40;63.50;;;;;;5113929;28;20185;-62
2021/09/04 06:24:14;;;;;;;8.82;7.30;;;21.40;63.50;;;;;;5112915;28;20373;-62
2021/09/04 06:26:39;;;;;;;8.18;7.35;;;21.40;63.50;;;;;;5113349;28;20245;-62
2021/09/04 06:29:06;;;;;;;7.95;7.15;;;21.40;63.50;;;;;;5113059;28;20304;-63
2021/09/04 06:31:31;;;;;;;8.57;7.78;;;21.40;63.60;;;;;;5113447;28;20299;-63
2021/09/04 06:34:00;;;;;;;8.38;7.57;;;21.40;63.50;;;;;;5112617;28;20261;-63
2021/09/04 06:36:25;;;;;;;8.77;7.88;;;21.40;63.50;;;;;;5112605;28;20177;-64
2021/09/04 06:38:51;;;;;;;8.45;7.57;;;21.40;63.50;;;;;;5113295;28;20165;-63
2021/09/04 06:41:16;;;;;;;8.52;7.68;;;21.40;63.40;;;;;;5113453;28;20600;-63
2021/09/04 06:43:42;;;;;;;8.77;7.82;;;21.40;63.50;;;;;;5112360;28;20165;-63
2021/09/04 06:46:07;;;;;;;7.97;7.15;;;21.40;63.40;;;;;;5113176;28;20216;-63
2021/09/04 06:48:33;;;;;;;9.05;7.30;;;21.40;63.40;;;;;;5113074;28;20192;-63
2021/09/04 06:50:58;;;;;;;10.55;7.63;;;21.40;63.40;;;;;;5112430;28;20184;-63
2021/09/04 06:53:24;;;;;;;8.32;7.53;;;21.40;63.40;;;;;;5113073;28;20628;-63
2021/09/04 06:55:49;;;;;;;8.75;7.85;;;21.40;63.30;;;;;;5113100;28;20215;-63
2021/09/04 06:58:15;;;;;;;8.07;7.35;;;21.40;63.30;;;;;;5112343;28;20165;-63
2021/09/04 07:00:40;;;;;;;9.00;7.65;;;21.40;64.10;;;;;;5112723;28;20173;-63
2021/09/04 07:03:06;;;;;;;8.15;7.35;;;21.40;63.20;;;;;;5112905;28;20230;-63
2021/09/04 07:05:31;;;;;;;7.93;7.13;;;21.40;63.20;;;;;;5112074;28;20635;-63
2021/09/04 07:07:57;;;;;;;9.38;7.70;;;21.40;63.30;;;;;;5112976;28;20266;-63
2021/09/04 07:10:22;;;;;;;7.93;7.13;;;21.40;63.20;;;;;;5112697;28;20173;-63
2021/09/04 07:12:48;;;;;;;9.18;7.57;;;21.40;63.20;;;;;;5112858;28;20192;-63
2021/09/04 07:15:13;;;;;;;8.27;7.38;;;21.40;63.10;;;;;;5112895;28;20603;-62
2021/09/04 07:17:39;;;;;;;7.43;6.65;;;21.50;64.00;;;;;;5112377;28;20286;-62
2021/09/04 07:20:05;;;;;;;7.82;6.60;;;21.50;63.90;;;;;;5112050;28;20303;-63
2021/09/04 07:22:31;;;;;;;8.18;7.32;;;21.50;63.00;;;;;;5112573;28;20181;-62
2021/09/04 07:24:56;;;;;;;7.60;6.80;;;21.50;63.00;;;;;;5112785;28;20164;-63
2021/09/04 07:27:22;;;;;;;8.30;7.50;;;21.50;62.90;;;;;;5111662;28;20589;-62
2021/09/04 07:29:47;;;;;;;7.53;6.72;;;21.50;62.90;;;;;;5112653;28;20639;-63
2021/09/04 07:32:13;;;;;;;7.93;7.13;;;21.50;63.00;;;;;;5112501;28;20685;-63
2021/09/04 07:34:38;;;;;;;7.65;6.88;;;21.50;62.90;;;;;;5111471;28;20169;-63
2021/09/04 07:37:04;;;;;;;8.93;7.15;;;21.50;62.90;;;;;;5112681;28;20199;-63
2021/09/04 07:39:29;;;;;;;7.70;6.80;;;21.50;62.90;;;;;;5111676;28;20197;-62
2021/09/04 07:41:55;;;;;;;8.38;6.97;;;21.50;62.90;;;;;;5112393;28;20259;-63
2021/09/04 07:44:20;;;;;;;8.57;7.25;;;21.50;62.80;;;;;;5112982;28;20540;-63
2021/09/04 07:46:46;;;;;;;8.50;7.70;;;21.50;62.90;;;;;;5116035;28;20212;-61
2021/09/04 07:49:12;;;;;;;8.57;7.70;;;21.50;62.70;;;;;;5116669;28;20172;-61
2021/09/04 07:51:37;;;;;;;7.75;6.97;;;21.50;62.70;;;;;;5116434;28;20275;-63
2021/09/04 07:54:03;;;;;;;7.90;6.90;;;21.60;62.70;;;;;;5115965;28;20179;-61
2021/09/04 07:56:28;;;;;;;9.30;7.55;;;21.60;62.90;;;;;;5116388;28;20188;-60
2021/09/04 07:58:54;;;;;;;8.30;7.50;;;21.70;62.70;;;;;;5116450;28;20196;-61
2021/09/04 08:01:19;;;;;;;7.53;6.82;;;21.70;62.70;;;;;;5115534;28;20173;-61
2021/09/04 08:03:45;;;;;;;9.88;7.22;;;21.70;62.60;;;;;;5116391;28;20215;-60
2021/09/04 08:06:10;;;;;;;8.60;6.40;;;21.70;62.70;;;;;;5116394;28;20242;-61
2021/09/04 08:08:36;;;;;;;7.50;6.70;;;21.70;62.70;;;;;;5115200;28;20176;-60
2021/09/04 08:11:02;;;;;;;7.53;6.57;;;21.70;62.70;;;;;;5116266;28;20524;-60
2021/09/04 08:13:28;;;;;;;8.55;6.68;;;21.70;62.80;;;;;;5115996;28;20173;-60
2021/09/04 08:15:53;;;;;;;7.53;6.80;;;21.70;62.70;;;;;;5115384;28;20645;-60
2021/09/04 08:18:19;;;;;;;8.45;7.38;;;21.70;62.70;;;;;;5116317;28;20181;-60
2021/09/04 08:20:44;;;;;;;9.25;7.25;;;21.70;62.70;;;;;;5115977;28;20731;-60
2021/09/04 08:23:10;;;;;;;7.60;6.90;;;21.70;62.70;;;;;;5115439;28;20229;-60
2021/09/04 08:25:36;;;;;;;7.45;6.70;;;21.70;62.70;;;;;;5115698;28;20169;-60
2021/09/04 08:28:04;;;;;;;7.35;6.65;;;21.70;62.70;;;;;;5115837;28;20208;-60
2021/09/04 08:30:30;;;;;;;6.70;6.03;;;21.70;62.60;;;;;;5113657;28;20177;-61
2021/09/04 08:32:55;;;;;;;7.88;6.40;;;21.70;62.40;;;;;;5115772;28;20181;-61
2021/09/04 08:35:21;;;;;;;7.60;6.78;;;21.70;62.40;;;;;;5115674;28;20515;-60
2021/09/04 08:37:46;;;;;;;7.57;6.68;;;21.80;62.50;;;;;;5115156;28;20628;-61
2021/09/04 08:40:12;;;;;;;7.78;6.80;;;21.80;62.60;;;;;;5115695;28;20172;-61
2021/09/04 08:42:37;;;;;;;9.23;6.97;;;21.80;62.20;;;;;;5115298;28;20239;-61
2021/09/04 08:45:03;;;;;;;8.02;7.20;;;21.80;62.40;;;;;;5114840;28;20643;-61
2021/09/04 08:47:29;;;;;;;7.50;6.80;;;21.80;62.10;;;;;;5115377;28;20209;-61
2021/09/04 08:49:55;;;;;;;8.48;7.57;;;21.90;62.10;;;;;;5115075;28;20166;-61
2021/09/04 08:52:20;;;;;;;9.35;7.13;;;21.80;61.80;;;;;;5115245;28;20192;-61
2021/09/04 08:54:46;;;;;;;8.27;6.97;;;21.90;61.70;;;;;;5115553;28;20674;-61
2021/09/04 08:57:12;;;;;;;8.40;7.32;;;22.00;61.60;;;;;;5113859;28;20535;-61
2021/09/04 08:59:38;;;;;;;8.48;6.63;;;22.10;61.30;;;;;;5114973;28;20612;-60
2021/09/04 09:02:10;;;;;;;9.82;6.75;;;22.10;61.10;;;;;;5115542;28;20169;-61
2021/09/04 09:04:35;;;;;;;7.82;7.13;;;22.20;61.10;;;;;;5114549;28;20218;-60
2021/09/04 09:07:01;;;;;;;8.00;6.80;;;22.20;61.00;;;;;;5115271;28;20297;-61
2021/09/04 09:09:27;;;;;;;7.22;6.53;;;22.20;61.00;;;;;;5114956;28;20177;-61
2021/09/04 09:11:53;;;;;;;7.03;6.30;;;22.30;61.10;;;;;;5114503;28;20188;-61
2021/09/04 09:14:19;;;;;;;7.82;6.90;;;22.30;61.20;;;;;;5115108;28;20191;-61
2021/09/04 09:16:55;;;;;;;9.70;6.97;;;22.20;61.20;;;;;;5115149;28;20173;-61
2021/09/04 09:19:27;;;;;;;9.57;7.55;;;22.20;61.30;;;;;;5114165;28;20193;-61
2021/09/04 09:21:56;;;;;;;7.65;6.85;;;22.20;61.50;;;;;;5114780;28;20228;-61
2021/09/04 09:24:22;;;;;;;8.60;6.97;;;22.10;61.50;;;;;;5114633;28;20173;-61
2021/09/04 09:26:51;;;;;;;9.07;7.35;;;22.10;61.60;;;;;;5114057;28;20208;-61
2021/09/04 09:29:24;;;;;;;7.72;6.93;;;22.20;61.50;;;;;;5114822;28;20534;-61
2021/09/04 09:31:59;;;;;;;7.20;6.50;;;22.20;61.50;;;;;;5114801;28;20635;-61
2021/09/04 09:34:24;;;;;;;9.13;7.45;;;22.20;61.50;;;;;;5113410;28;20188;-61
2021/09/04 09:36:52;;;;;;;7.10;6.45;;;22.20;61.50;;;;;;5114606;28;20177;-62
2021/09/04 09:39:17;;;;;;;7.80;6.93;;;22.20;61.50;;;;;;5113833;28;21094;-62
2021/09/04 09:41:47;;;;;;;7.22;6.53;;;22.20;61.50;;;;;;5114492;28;20665;-60
2021/09/04 09:44:24;;;;;;;7.68;6.82;;;22.30;61.50;;;;;;5114726;28;20203;-61
2021/09/04 09:46:59;;;;;;;7.70;6.85;;;22.30;61.40;;;;;;5114066;28;20276;-61
2021/09/04 09:49:39;;;;;;;6.65;6.05;;;22.30;61.30;;;;;;5114358;28;20180;-61
2021/09/04 09:52:09;;;;;;;6.78;6.07;;;22.40;61.30;;;;;;5114725;28;20186;-61
2021/09/04 09:54:35;;;;;;;7.07;6.38;;;22.40;61.30;;;;;;5113465;28;20184;-62
2021/09/04 09:57:05;;;;;;;7.55;6.60;;;22.40;61.30;;;;;;5114530;28;20173;-61
2021/09/04 09:59:31;;;;;;;8.20;7.10;;;22.40;61.30;;;;;;5113853;28;20184;-61
2021/09/04 10:02:00;;;;;;;8.02;6.88;;;22.50;61.40;;;;;;5113458;28;20177;-61
2021/09/04 10:04:27;;;;;;;7.90;7.13;;;22.50;61.40;;;;;;5114115;28;20243;-62
2021/09/04 10:06:53;;;;;;;7.60;6.90;;;22.50;61.30;;;;;;5113995;28;20205;-61
2021/09/04 10:09:22;;;;;;;6.85;6.25;;;22.50;61.50;;;;;;5113297;28;20181;-60
2021/09/04 10:11:48;;;;;;;7.85;7.00;;;22.60;61.60;;;;;;5114118;28;20283;-59
2021/09/04 10:14:13;;;;;;;7.82;7.03;;;22.60;61.70;;;;;;5113036;28;20252;-60
2021/09/04 10:16:38;;;;;;;7.60;6.80;;;22.60;61.70;;;;;;5095127;28;20579;-60
2021/09/04 10:19:04;;;;;;;6.75;6.05;;;22.60;61.60;;;;;;5095603;28;20169;-59
2021/09/04 10:21:38;;;;;;;6.97;6.22;;;22.70;62.60;;;;;;5111193;28;20217;-60
2021/09/04 10:24:05;;;;;;;7.45;6.70;;;22.70;61.70;;;;;;5113538;28;20637;-59
2021/09/04 10:26:31;;;;;;;8.45;6.57;;;22.70;61.60;;;;;;5113187;28;20219;-59
2021/09/04 10:29:01;;;;;;;7.70;6.82;;;22.70;61.50;;;;;;5112725;28;20173;-60
2021/09/04 10:31:48;;;;;;;7.07;6.43;;;22.80;61.60;;;;;;5113340;28;20192;-60
2021/09/04 10:34:23;;;;;;;7.75;6.50;;;22.80;61.50;;;;;;5112055;28;20259;-61
2021/09/04 10:37:11;;;;;;;7.22;6.53;;;22.80;61.60;;;;;;5112761;28;20176;-61
2021/09/04 10:40:00;;;;;;;9.93;6.57;;;22.80;61.60;;;;;;5112756;28;20199;-60
2021/09/04 10:42:28;;;;;;;8.35;6.15;;;22.80;61.60;;;;;;5112502;28;20245;-61
2021/09/04 10:45:03;;;;;;;6.72;6.00;;;22.80;61.60;;;;;;5113333;28;20172;-61
2021/09/04 10:47:29;;;;;;;6.43;5.82;;;22.80;61.60;;;;;;5112729;28;20219;-61
2021/09/04 10:49:58;;;;;;;7.10;6.05;;;22.90;61.70;;;;;;5112357;28;20534;-61
2021/09/04 10:52:46;;;;;;;7.50;6.10;;;22.90;61.60;;;;;;5111473;28;20173;-60
2021/09/04 10:55:18;;;;;;;8.27;6.32;;;22.90;61.50;;;;;;5113096;28;20173;-61
2021/09/04 10:57:45;;;;;;;7.38;6.00;;;22.90;61.50;;;;;;5112239;28;20173;-61
2021/09/04 11:00:21;;;;;;;7.25;6.07;;;23.00;61.60;;;;;;5113080;28;20173;-61
2021/09/04 11:02:59;;;;;;;7.65;6.40;;;23.00;61.60;;;;;;5111848;28;20188;-61
2021/09/04 11:05:42;;;;;;;6.82;6.03;;;23.00;61.60;;;;;;5112188;28;20175;-61
2021/09/04 11:08:10;;;;;;;8.38;6.80;;;23.00;61.50;;;;;;5112850;28;20292;-62
2021/09/04 11:10:40;;;;;;;11.02;6.47;;;23.00;61.50;;;;;;5111892;28;20190;-63
2021/09/04 11:13:14;;;;;;;7.65;5.93;;;23.00;61.40;;;;;;5112813;28;20173;-66
2021/09/04 11:15:40;;;;;;;7.00;6.10;;;23.00;61.50;;;;;;5112395;28;20225;-64
2021/09/04 11:18:13;;;;;;;7.50;6.47;;;23.00;61.40;;;;;;5110917;28;20177;-66
2021/09/04 11:20:45;;;;;;;7.20;6.47;;;23.00;61.40;;;;;;5111777;27;20224;-65
2021/09/04 11:23:11;;;;;;;6.25;5.65;;;23.00;61.30;;;;;;5112642;28;20212;-65
2021/09/04 11:25:39;;;;;;;6.88;6.25;;;23.00;61.30;;;;;;5111531;28;20624;-65
2021/09/04 11:28:05;;;;;;;8.40;6.15;;;23.10;61.40;;;;;;5112813;28;20299;-66
2021/09/04 11:30:30;;;;;;;7.80;5.90;;;23.10;61.30;;;;;;5111159;28;20256;-65
2021/09/04 11:33:12;;;;;;;7.05;6.40;;;23.10;61.30;;;;;;5111835;28;20654;-66
2021/09/04 11:35:50;;;;;;;7.53;6.07;;;23.10;61.20;;;;;;5112088;28;20169;-66
2021/09/04 11:38:16;;;;;;;6.88;6.18;;;23.10;61.00;;;;;;5112460;28;20181;-66
2021/09/04 11:40:42;;;;;;;9.38;6.63;;;23.10;61.00;;;;;;5111440;28;20213;-65
2021/09/04 11:43:08;;;;;;;10.18;6.20;;;23.20;60.70;;;;;;5112618;28;20230;-66
2021/09/04 11:45:33;;;;;;;7.47;6.38;;;23.10;60.60;;;;;;5112107;28;20181;-65
2021/09/04 11:48:06;;;;;;;8.40;6.15;;;23.10;60.60;;;;;;5111920;28;20212;-66
2021/09/04 11:50:32;;;;;;;6.53;5.70;;;23.20;60.00;;;;;;5111998;28;20184;-65
2021/09/04 11:52:59;;;;;;;9.20;6.45;;;23.20;59.80;;;;;;5111839;28;20169;-66
2021/09/04 11:55:29;;;;;;;6.55;5.85;;;23.20;59.60;;;;;;5112183;28;20252;-65
2021/09/04 11:57:58;;;;;;;9.57;6.80;;;23.20;59.60;;;;;;5112290;28;20674;-65
2021/09/04 12:00:28;;;;;;;7.22;6.20;;;23.20;59.40;;;;;;5111365;28;20252;-66
2021/09/04 12:03:03;;;;;;;10.00;6.90;;;23.30;59.30;;;;;;5112138;28;20197;-66
2021/09/04 12:05:33;;;;;;;9.15;7.07;;;23.30;59.10;;;;;;5112237;28;20184;-65
2021/09/04 12:08:09;;;;;;;7.75;6.32;;;23.30;59.00;;;;;;5111458;28;20700;-65
2021/09/04 12:10:39;;;;;;;7.43;6.68;;;23.30;58.80;;;;;;5111858;28;20662;-64
2021/09/04 12:13:11;;;;;;;7.75;6.95;;;23.40;58.60;;;;;;5112399;28;20226;-65
2021/09/04 12:15:37;;;;;;;7.75;6.97;;;23.40;58.40;;;;;;5110032;28;20516;-65
2021/09/04 12:18:05;;;;;;;8.50;7.47;;;23.40;58.20;;;;;;5112298;28;20189;-65
2021/09/04 12:20:34;;;;;;;8.10;7.30;;;23.40;58.10;;;;;;5111832;28;20228;-65
2021/09/04 12:23:20;;;;;;;10.63;7.00;;;23.40;58.00;;;;;;5111568;28;20169;-66
2021/09/04 12:25:49;;;;;;;7.70;6.78;;;23.50;58.00;;;;;;5112046;28;20177;-65
2021/09/04 12:28:24;;;;;;;10.23;7.07;;;23.50;57.90;;;;;;5111564;28;20300;-65
2021/09/04 12:31:05;;;;;;;8.15;7.07;;;23.50;57.60;;;;;;5112340;28;20176;-65
2021/09/04 12:33:31;;;;;;;10.32;7.50;;;23.50;57.60;;;;;;5115537;28;20655;-66
2021/09/04 12:36:03;;;;;;;7.80;7.00;;;23.50;57.40;;;;;;5115020;28;20180;-67
2021/09/04 12:38:40;;;;;;;7.60;6.75;;;23.60;57.30;;;;;;5115467;28;20184;-66
2021/09/04 12:41:10;;;;;;;8.48;7.13;;;23.60;57.10;;;;;;5115906;28;20268;-66
2021/09/04 12:43:58;;;;;;;8.82;7.00;;;23.60;57.10;;;;;;5114817;28;20181;-66